createdAt,value
2023-03-08T00:01:02.076Z,9.75
2023-03-08T00:03:28.548Z,14.77
2023-03-08T00:05:54.993Z,11.07
2023-03-08T00:08:21.528Z,12.60
2023-03-08T00:10:47.950Z,11.82
2023-03-08T00:13:14.318Z,10.07
2023-03-08T00:15:40.751Z,10.88
2023-03-08T00:18:07.152Z,11.15
2023-03-08T00:20:33.969Z,10.80
2023-03-08T00:23:00.355Z,10.55
2023-03-08T00:25:26.743Z,10.82
2023-03-08T00:27:53.402Z,10.05
2023-03-08T00:30:19.794Z,12.93
2023-03-08T00:32:46.293Z,12.18
2023-03-08T00:35:12.675Z,13.93
2023-03-08T00:37:39.068Z,12.23
2023-03-08T00:40:05.995Z,13.95
2023-03-08T00:42:32.447Z,15.48
2023-03-08T00:44:58.812Z,13.30
2023-03-08T00:47:25.210Z,14.60
2023-03-08T00:49:51.596Z,14.05
2023-03-08T00:52:18.141Z,11.90
2023-03-08T00:54:44.563Z,13.73
2023-03-08T00:57:11.127Z,16.90
2023-03-08T00:59:37.577Z,14.82
2023-03-08T01:02:03.959Z,12.40
2023-03-08T01:04:33.157Z,14.50
2023-03-08T01:07:00.586Z,14.95
2023-03-08T01:09:26.976Z,15.55
2023-03-08T01:11:53.498Z,13.10
2023-03-08T01:14:19.887Z,14.48
2023-03-08T01:16:46.273Z,15.55
2023-03-08T01:19:12.656Z,16.83
2023-03-08T01:21:39.082Z,15.02
2023-03-08T01:24:05.980Z,15.02
2023-03-08T01:26:32.610Z,14.45
2023-03-08T01:28:59.036Z,16.05
2023-03-08T01:31:28.188Z,16.77
2023-03-08T01:33:55.260Z,16.85
2023-03-08T01:36:24.709Z,14.27
2023-03-08T01:38:51.431Z,13.55
2023-03-08T01:41:24.045Z,15.27
2023-03-08T01:43:50.740Z,12.77
2023-03-08T01:46:26.447Z,13.95
2023-03-08T01:48:56.245Z,13.38
2023-03-08T01:51:28.792Z,11.82
2023-03-08T01:53:55.791Z,11.30
2023-03-08T01:56:22.740Z,10.88
2023-03-08T01:58:50.674Z,12.80
2023-03-08T02:01:19.242Z,11.65
2023-03-08T02:03:45.830Z,10.65
2023-03-08T02:06:12.722Z,11.35
2023-03-08T02:08:39.152Z,13.07
2023-03-08T02:11:05.640Z,10.45
2023-03-08T02:13:32.391Z,9.30
2023-03-08T02:15:59.010Z,11.20
2023-03-08T02:18:25.424Z,14.73
2023-03-08T02:20:51.834Z,11.00
2023-03-08T02:23:23.866Z,9.88
2023-03-08T02:25:55.568Z,9.55
2023-03-08T02:28:23.339Z,13.90
2023-03-08T02:30:50.255Z,9.90
2023-03-08T02:33:17.647Z,10.30
2023-03-08T02:35:44.928Z,11.68
2023-03-08T02:38:13.007Z,10.00
2023-03-08T02:40:39.966Z,11.48
2023-03-08T02:43:06.976Z,8.95
2023-03-08T02:45:34.066Z,7.55
2023-03-08T02:48:01.638Z,9.93
2023-03-08T02:50:28.259Z,9.82
2023-03-08T02:52:54.792Z,10.55
2023-03-08T02:55:21.383Z,12.98
2023-03-08T02:57:47.788Z,9.45
2023-03-08T03:00:14.766Z,12.30
2023-03-08T03:02:41.174Z,10.85
2023-03-08T03:05:10.941Z,9.93
2023-03-08T03:07:39.323Z,12.43
2023-03-08T03:10:06.642Z,10.00
2023-03-08T03:12:33.040Z,10.55
2023-03-08T03:15:02.020Z,11.48
2023-03-08T03:17:28.637Z,13.18
2023-03-08T03:19:55.000Z,12.57
2023-03-08T03:22:21.406Z,11.23
2023-03-08T03:24:50.094Z,11.15
2023-03-08T03:27:16.984Z,14.02
2023-03-08T03:29:43.344Z,11.30
2023-03-08T03:32:09.815Z,13.07
2023-03-08T03:34:36.271Z,13.52
2023-03-08T03:37:03.042Z,10.30
2023-03-08T03:39:34.020Z,12.35
2023-03-08T03:42:00.824Z,14.48
2023-03-08T03:44:30.628Z,12.10
2023-03-08T03:46:57.385Z,14.35
2023-03-08T03:49:23.822Z,14.13
2023-03-08T03:51:50.245Z,15.65
2023-03-08T03:54:16.671Z,12.38
2023-03-08T03:56:43.117Z,12.82
2023-03-08T03:59:09.513Z,17.17
2023-03-08T04:01:35.893Z,13.38
2023-03-08T04:04:02.307Z,12.77
2023-03-08T04:06:30.053Z,13.45
2023-03-08T04:09:02.063Z,16.60
2023-03-08T04:11:33.056Z,16.80
2023-03-08T04:13:59.514Z,16.13
2023-03-08T04:16:29.481Z,14.90
2023-03-08T04:18:58.361Z,19.05
2023-03-08T04:21:25.219Z,16.85
2023-03-08T04:23:51.729Z,17.38
2023-03-08T04:26:18.377Z,16.55
2023-03-08T04:28:44.759Z,15.93
2023-03-08T04:31:13.127Z,17.42
2023-03-08T04:33:39.810Z,17.20
2023-03-08T04:36:06.384Z,16.65
2023-03-08T04:38:36.204Z,17.40
2023-03-08T04:41:10.253Z,17.33
2023-03-08T04:43:36.787Z,17.25
2023-03-08T04:46:03.464Z,18.88
2023-03-08T04:48:30.164Z,19.15
2023-03-08T04:50:58.589Z,19.80
2023-03-08T04:53:25.815Z,19.20
2023-03-08T04:55:52.746Z,19.85
2023-03-08T04:58:19.443Z,21.83
2023-03-08T05:00:45.821Z,20.95
2023-03-08T05:03:13.401Z,20.23
2023-03-08T05:05:51.402Z,16.67
2023-03-08T05:08:18.520Z,21.20
2023-03-08T05:11:00.771Z,20.02
2023-03-08T05:13:29.402Z,23.50
2023-03-08T05:15:56.063Z,21.90
2023-03-08T05:18:22.599Z,21.40
2023-03-08T05:21:03.212Z,27.85
2023-03-08T05:23:30.130Z,29.52
2023-03-08T05:25:58.429Z,27.35
2023-03-08T05:28:26.420Z,28.27
2023-03-08T05:31:10.736Z,30.23
2023-03-08T05:33:37.435Z,26.63
2023-03-08T05:36:05.027Z,31.02
2023-03-08T05:38:31.690Z,27.50
2023-03-08T05:41:02.499Z,29.52
2023-03-08T05:43:29.209Z,27.35
2023-03-08T05:46:00.947Z,33.25
2023-03-08T05:48:27.463Z,28.77
2023-03-08T05:50:55.304Z,31.08
2023-03-08T05:53:22.669Z,32.75
2023-03-08T05:55:49.269Z,33.53
2023-03-08T05:58:16.087Z,34.15
2023-03-08T06:00:42.534Z,37.60
2023-03-08T06:03:08.985Z,37.38
2023-03-08T06:05:35.426Z,35.35
2023-03-08T06:08:01.928Z,39.72
2023-03-08T06:10:28.290Z,39.90
2023-03-08T06:12:54.715Z,40.55
2023-03-08T06:15:21.245Z,42.75
2023-03-08T06:17:47.699Z,38.45
2023-03-08T06:20:16.408Z,42.08
2023-03-08T06:22:43.328Z,44.63
2023-03-08T06:25:10.008Z,44.28
2023-03-08T06:27:36.385Z,42.70
2023-03-08T06:30:02.878Z,43.10
2023-03-08T06:32:29.389Z,46.72
2023-03-08T06:34:55.778Z,44.97
2023-03-08T06:37:22.177Z,47.60
2023-03-08T06:39:48.546Z,46.75
2023-03-08T06:42:14.921Z,44.58
2023-03-08T06:44:41.344Z,42.17
2023-03-08T06:47:07.766Z,45.50
2023-03-08T06:49:34.165Z,47.67
2023-03-08T06:52:00.559Z,43.92
2023-03-08T06:54:26.940Z,47.38
2023-03-08T06:56:53.294Z,45.42
2023-03-08T06:59:19.943Z,44.90
2023-03-08T07:01:46.298Z,46.72
2023-03-08T07:04:12.788Z,44.20
2023-03-08T07:06:39.183Z,47.85
2023-03-08T07:09:05.530Z,45.65
2023-03-08T07:11:33.596Z,46.78
2023-03-08T07:14:00.024Z,48.50
2023-03-08T07:16:26.777Z,52.90
2023-03-08T07:18:53.289Z,47.63
2023-03-08T07:21:19.682Z,55.63
2023-03-08T07:23:46.096Z,53.42
2023-03-08T07:26:12.545Z,56.17
2023-03-08T07:28:39.115Z,53.53
2023-03-08T07:31:05.743Z,59.17
2023-03-08T07:33:32.405Z,56.05
2023-03-08T07:36:01.527Z,56.40
2023-03-08T07:38:28.007Z,55.95
2023-03-08T07:40:56.033Z,54.75
2023-03-08T07:43:23.109Z,55.70
2023-03-08T07:45:49.519Z,60.00
2023-03-08T07:48:15.892Z,59.53
2023-03-08T07:50:42.316Z,52.50
2023-03-08T07:53:08.751Z,55.95
2023-03-08T07:55:36.888Z,54.63
2023-03-08T07:58:03.289Z,57.40
2023-03-08T08:00:29.707Z,51.28
2023-03-08T08:02:57.355Z,51.28
2023-03-08T08:05:24.461Z,55.25
2023-03-08T08:07:50.950Z,56.13
2023-03-08T08:10:17.513Z,50.95
2023-03-08T08:12:43.933Z,55.95
2023-03-08T08:15:10.931Z,51.70
2023-03-08T08:17:37.363Z,51.75
2023-03-08T08:20:06.011Z,53.20
2023-03-08T08:22:35.206Z,52.60
2023-03-08T08:25:01.958Z,51.20
2023-03-08T08:27:28.364Z,53.30
2023-03-08T08:29:54.755Z,50.95
2023-03-08T08:32:21.185Z,54.97
2023-03-08T08:34:47.648Z,50.55
2023-03-08T08:37:14.035Z,52.92
2023-03-08T08:39:40.437Z,52.70
2023-03-08T08:42:07.048Z,55.15
2023-03-08T08:44:33.470Z,53.33
2023-03-08T08:46:59.866Z,53.65
2023-03-08T08:49:26.258Z,49.80
2023-03-08T08:51:53.311Z,52.40
2023-03-08T08:54:19.815Z,51.88
2023-03-08T08:56:46.216Z,55.70
2023-03-08T08:59:13.283Z,52.95
2023-03-08T09:01:47.039Z,50.70
2023-03-08T09:04:14.223Z,53.97
2023-03-08T09:06:40.756Z,51.10
2023-03-08T09:09:07.235Z,47.00
2023-03-08T09:11:39.749Z,50.75
2023-03-08T09:14:11.546Z,50.00
2023-03-08T09:16:38.047Z,49.42
2023-03-08T09:19:05.334Z,46.67
2023-03-08T09:21:32.245Z,46.17
2023-03-08T09:24:00.926Z,48.45
2023-03-08T09:26:30.261Z,50.38
2023-03-08T09:28:58.663Z,48.78
2023-03-08T09:31:26.007Z,47.45
2023-03-08T09:33:52.486Z,48.25
2023-03-08T09:36:19.696Z,45.30
2023-03-08T09:38:50.348Z,49.72
2023-03-08T09:41:21.494Z,48.22
2023-03-08T09:43:59.999Z,46.38
2023-03-08T09:46:34.700Z,41.47
2023-03-08T09:49:03.198Z,36.95
2023-03-08T09:51:35.068Z,43.50
2023-03-08T09:54:05.245Z,48.10
2023-03-08T09:56:47.766Z,47.97
2023-03-08T09:59:35.086Z,46.35
2023-03-08T10:02:17.276Z,46.10
2023-03-08T10:05:11.841Z,36.63
2023-03-08T10:07:52.874Z,32.65
2023-03-08T10:10:25.187Z,28.15
2023-03-08T10:13:10.103Z,27.83
2023-03-08T10:15:41.340Z,28.17
2023-03-08T10:18:22.592Z,29.75
2023-03-08T10:20:49.054Z,30.00
2023-03-08T10:23:18.800Z,27.65
2023-03-08T10:25:48.052Z,27.50
2023-03-08T10:28:20.130Z,27.50
2023-03-08T10:30:48.359Z,27.92
2023-03-08T10:33:17.679Z,27.40
2023-03-08T10:35:55.027Z,27.42
2023-03-08T10:38:22.213Z,24.40
2023-03-08T10:40:48.747Z,22.10
2023-03-08T10:43:36.894Z,18.80
2023-03-08T10:46:06.102Z,26.05
2023-03-08T10:48:32.708Z,20.77
2023-03-08T10:51:00.956Z,18.30
2023-03-08T10:53:29.783Z,15.32
2023-03-08T10:55:58.614Z,15.20
2023-03-08T10:58:36.453Z,15.32
2023-03-08T11:01:22.714Z,13.68
2023-03-08T11:04:15.175Z,13.95
2023-03-08T11:06:41.712Z,17.10
2023-03-08T11:09:28.896Z,16.77
2023-03-08T11:11:56.886Z,17.15
2023-03-08T11:14:24.710Z,15.75
2023-03-08T11:17:22.218Z,13.95
2023-03-08T11:20:13.865Z,10.27
2023-03-08T11:22:58.339Z,8.32
2023-03-08T11:25:28.767Z,8.35
2023-03-08T11:28:08.136Z,8.88
2023-03-08T11:30:56.396Z,12.45
2023-03-08T11:33:44.728Z,9.40
2023-03-08T11:36:33.151Z,9.85
2023-03-08T11:39:19.745Z,9.88
2023-03-08T11:41:55.296Z,8.38
2023-03-08T11:44:37.415Z,6.13
2023-03-08T11:47:14.570Z,3.13
2023-03-08T11:50:16.579Z,3.00
2023-03-08T11:53:09.174Z,4.65
2023-03-08T11:55:55.130Z,5.80
2023-03-08T11:58:29.584Z,6.45
2023-03-08T12:01:00.722Z,7.53
2023-03-08T12:03:31.920Z,7.55
2023-03-08T12:06:22.881Z,6.35
2023-03-08T12:08:59.403Z,5.18
2023-03-08T12:11:32.227Z,5.72
2023-03-08T12:14:18.614Z,4.88
2023-03-08T12:17:25.514Z,6.30
2023-03-08T12:19:52.063Z,6.97
2023-03-08T12:22:50.268Z,7.28
2023-03-08T12:25:29.572Z,5.60
2023-03-08T12:27:55.949Z,7.25
2023-03-08T12:30:32.964Z,5.40
2023-03-08T12:33:02.695Z,6.28
2023-03-08T12:35:32.326Z,5.90
2023-03-08T12:38:17.736Z,6.55
2023-03-08T12:40:49.671Z,6.88
2023-03-08T12:43:22.096Z,5.68
2023-03-08T12:48:22.364Z,6.97
2023-03-08T12:51:04.095Z,6.03
2023-03-08T12:53:45.833Z,7.80
2023-03-08T12:56:12.119Z,5.40
2023-03-08T12:58:59.988Z,6.10
2023-03-08T13:01:38.540Z,6.57
2023-03-08T13:04:39.385Z,8.07
2023-03-08T13:07:18.889Z,5.33
2023-03-08T13:10:09.020Z,5.75
2023-03-08T13:13:26.742Z,5.78
2023-03-08T13:16:06.873Z,6.15
2023-03-08T13:18:33.341Z,5.00
2023-03-08T13:21:14.570Z,6.57
2023-03-08T13:23:48.074Z,5.18
2023-03-08T13:26:19.309Z,31.15
2023-03-08T13:28:48.340Z,6.90
2023-03-08T13:31:20.360Z,7.78
2023-03-08T13:33:48.280Z,5.78
2023-03-08T13:36:23.407Z,26.92
2023-03-08T13:39:06.483Z,31.23
2023-03-08T13:41:47.522Z,4.93
2023-03-08T13:44:19.444Z,5.53
2023-03-08T13:46:47.234Z,6.00
2023-03-08T13:49:17.775Z,5.20
2023-03-08T13:51:46.370Z,5.03
2023-03-08T13:54:15.905Z,5.78
2023-03-08T13:56:42.475Z,5.68
2023-03-08T13:59:37.874Z,4.22
2023-03-08T14:02:18.282Z,5.90
2023-03-08T14:04:44.792Z,4.75
2023-03-08T14:07:21.103Z,5.97
2023-03-08T14:09:47.502Z,4.57
2023-03-08T14:12:17.283Z,4.45
2023-03-08T14:14:44.826Z,6.82
2023-03-08T14:17:23.849Z,5.30
2023-03-08T14:20:17.799Z,3.67
2023-03-08T14:22:48.828Z,3.85
2023-03-08T14:25:25.708Z,4.22
2023-03-08T14:27:52.490Z,5.60
2023-03-08T14:30:22.184Z,6.53
2023-03-08T14:33:23.210Z,4.95
2023-03-08T14:35:57.617Z,5.45
2023-03-08T14:38:25.657Z,4.78
2023-03-08T14:40:52.372Z,5.25
2023-03-08T14:43:20.915Z,5.25
2023-03-08T14:46:00.121Z,5.32
2023-03-08T14:48:31.874Z,5.20
2023-03-08T14:50:59.448Z,7.82
2023-03-08T14:53:37.203Z,6.07
2023-03-08T14:56:09.620Z,6.68
2023-03-08T14:58:40.323Z,5.95
2023-03-08T15:01:06.727Z,6.25
2023-03-08T15:03:33.604Z,6.32
2023-03-08T15:06:07.353Z,6.63
2023-03-08T15:08:33.751Z,7.47
2023-03-08T15:11:00.312Z,6.90
2023-03-08T15:13:26.716Z,6.35
2023-03-08T15:15:53.306Z,5.95
2023-03-08T15:18:20.760Z,6.88
2023-03-08T15:20:49.396Z,6.70
2023-03-08T15:23:24.710Z,5.90
2023-03-08T15:25:51.424Z,6.45
2023-03-08T15:28:19.293Z,6.18
2023-03-08T15:30:45.872Z,5.45
2023-03-08T15:33:12.312Z,5.95
2023-03-08T15:35:39.433Z,6.00
2023-03-08T15:38:06.049Z,5.35
2023-03-08T15:40:33.917Z,4.82
2023-03-08T15:43:01.102Z,6.63
2023-03-08T15:45:28.843Z,5.10
2023-03-08T15:47:57.090Z,4.85
2023-03-08T15:50:23.560Z,4.72
2023-03-08T15:52:49.984Z,5.28
2023-03-08T15:55:16.440Z,5.50
2023-03-08T15:57:42.863Z,5.60
2023-03-08T16:00:12.685Z,6.32
2023-03-08T16:02:39.923Z,7.22
2023-03-08T16:05:08.512Z,6.55
2023-03-08T16:07:35.396Z,7.82
2023-03-08T16:10:02.128Z,5.30
2023-03-08T16:12:28.553Z,6.57
2023-03-08T16:14:57.096Z,8.10
2023-03-08T16:17:27.893Z,5.65
2023-03-08T16:19:54.301Z,6.65
2023-03-08T16:22:20.879Z,7.68
2023-03-08T16:24:47.416Z,7.80
2023-03-08T16:27:14.144Z,5.95
2023-03-08T16:29:40.571Z,7.85
2023-03-08T16:32:07.276Z,7.13
2023-03-08T16:34:33.744Z,8.15
2023-03-08T16:37:00.147Z,7.72
2023-03-08T16:39:26.690Z,9.63
2023-03-08T16:41:53.111Z,7.80
2023-03-08T16:44:27.514Z,9.48
2023-03-08T16:46:54.411Z,8.88
2023-03-08T16:49:22.638Z,9.30
2023-03-08T16:51:51.955Z,8.23
2023-03-08T16:54:18.349Z,8.00
2023-03-08T16:56:44.782Z,9.50
2023-03-08T16:59:13.679Z,10.68
2023-03-08T17:01:42.258Z,11.80
2023-03-08T17:04:09.993Z,11.00
2023-03-08T17:06:37.465Z,12.43
2023-03-08T17:09:04.758Z,10.88
2023-03-08T17:11:33.586Z,11.63
2023-03-08T17:14:11.495Z,11.65
2023-03-08T17:16:38.089Z,11.55
2023-03-08T17:19:06.931Z,12.82
2023-03-08T17:21:38.032Z,11.77
2023-03-08T17:24:07.364Z,11.80
2023-03-08T17:26:35.613Z,12.60
2023-03-08T17:29:02.720Z,11.95
2023-03-08T17:31:29.268Z,16.17
2023-03-08T17:33:55.703Z,15.82
2023-03-08T17:36:22.285Z,15.65
2023-03-08T17:38:48.798Z,15.30
2023-03-08T17:41:16.362Z,16.85
2023-03-08T17:43:43.043Z,17.88
2023-03-08T17:46:16.455Z,18.48
2023-03-08T17:48:43.205Z,18.33
2023-03-08T17:51:12.010Z,18.90
2023-03-08T17:53:38.798Z,24.13
2023-03-08T17:56:13.334Z,21.90
2023-03-08T17:58:40.264Z,19.70
2023-03-08T18:01:16.494Z,19.85
2023-03-08T18:03:43.196Z,21.15
2023-03-08T18:06:18.815Z,19.85
2023-03-08T18:08:45.196Z,23.20
2023-03-08T18:11:11.588Z,21.38
2023-03-08T18:13:40.368Z,21.73
2023-03-08T18:16:07.180Z,22.25
2023-03-08T18:18:33.651Z,24.00
2023-03-08T18:21:12.110Z,25.58
2023-03-08T18:23:41.690Z,24.98
2023-03-08T18:26:08.103Z,29.05
2023-03-08T18:28:36.327Z,31.00
2023-03-08T18:31:10.425Z,43.67
2023-03-08T18:33:36.949Z,42.47
2023-03-08T18:36:03.769Z,32.92
2023-03-08T18:38:30.175Z,38.28
2023-03-08T18:40:56.582Z,39.22
2023-03-08T18:43:23.073Z,32.28
2023-03-08T18:45:51.459Z,37.03
2023-03-08T18:48:18.117Z,35.17
2023-03-08T18:50:45.709Z,33.05
2023-03-08T18:53:12.821Z,32.33
2023-03-08T18:55:39.424Z,30.45
2023-03-08T18:58:05.794Z,31.58
2023-03-08T19:00:32.223Z,30.98
2023-03-08T19:02:58.677Z,30.98
2023-03-08T19:05:25.049Z,32.88
2023-03-08T19:07:54.568Z,32.05
2023-03-08T19:10:20.919Z,33.30
2023-03-08T19:12:47.298Z,32.22
2023-03-08T19:15:13.682Z,31.70
2023-03-08T19:17:40.120Z,34.40
2023-03-08T19:20:07.096Z,31.40
2023-03-08T19:22:33.524Z,31.58
2023-03-08T19:25:00.887Z,33.13
2023-03-08T19:27:28.901Z,34.78
2023-03-08T19:29:55.324Z,33.85
2023-03-08T19:32:21.784Z,34.83
2023-03-08T19:34:49.051Z,35.70
2023-03-08T19:37:15.499Z,32.58
2023-03-08T19:39:43.513Z,30.08
2023-03-08T19:42:15.090Z,31.98
2023-03-08T19:44:41.549Z,32.67
2023-03-08T19:47:09.149Z,30.35
2023-03-08T19:49:36.337Z,28.75
2023-03-08T19:52:04.989Z,29.73
2023-03-08T19:54:31.877Z,27.70
2023-03-08T19:56:58.722Z,31.60
2023-03-08T19:59:25.632Z,30.38
2023-03-08T20:01:53.661Z,30.05
2023-03-08T20:04:20.705Z,30.98
2023-03-08T20:06:48.244Z,33.92
2023-03-08T20:09:23.722Z,34.85
2023-03-08T20:11:53.120Z,34.08
2023-03-08T20:14:20.368Z,34.85
2023-03-08T20:16:46.945Z,33.70
2023-03-08T20:19:13.474Z,34.97
2023-03-08T20:21:40.004Z,36.42
2023-03-08T20:24:06.491Z,34.17
2023-03-08T20:26:35.346Z,35.10
2023-03-08T20:29:01.993Z,35.40
2023-03-08T20:31:29.808Z,38.95
2023-03-08T20:33:56.186Z,36.65
2023-03-08T20:36:23.527Z,36.13
2023-03-08T20:38:49.915Z,37.50
2023-03-08T20:41:19.583Z,38.50
2023-03-08T20:43:47.651Z,36.60
2023-03-08T20:46:15.898Z,37.53
2023-03-08T20:48:43.995Z,38.38
2023-03-08T20:51:13.269Z,37.25
2023-03-08T20:53:39.818Z,38.45
2023-03-08T20:56:07.739Z,38.50
2023-03-08T20:58:34.408Z,40.80
2023-03-08T21:01:01.213Z,37.78
2023-03-08T21:03:27.746Z,38.50
2023-03-08T21:05:54.100Z,40.00
2023-03-08T21:08:24.106Z,35.72
2023-03-08T21:10:50.614Z,37.67
2023-03-08T21:13:17.015Z,36.85
2023-03-08T21:15:43.413Z,36.40
2023-03-08T21:18:09.859Z,38.33
2023-03-08T21:20:37.483Z,36.25
2023-03-08T21:23:03.985Z,37.30
2023-03-08T21:25:33.469Z,38.53
2023-03-08T21:27:59.838Z,38.47
2023-03-08T21:30:28.168Z,37.08
2023-03-08T21:32:54.767Z,38.35
2023-03-08T21:35:22.830Z,41.50
2023-03-08T21:37:49.363Z,35.95
2023-03-08T21:40:15.865Z,39.22
2023-03-08T21:42:42.250Z,38.03
2023-03-08T21:45:09.173Z,39.13
2023-03-08T21:47:35.620Z,37.88
2023-03-08T21:50:02.015Z,37.20
2023-03-08T21:52:28.388Z,40.42
2023-03-08T21:54:54.763Z,38.38
2023-03-08T21:57:21.122Z,37.78
2023-03-08T21:59:47.675Z,37.88
2023-03-08T22:02:14.062Z,40.42
2023-03-08T22:04:40.454Z,37.00
2023-03-08T22:07:06.848Z,39.08
2023-03-08T22:09:33.255Z,37.35
2023-03-08T22:11:59.714Z,37.50
2023-03-08T22:14:26.641Z,39.90
2023-03-08T22:16:54.592Z,40.08
2023-03-08T22:19:20.991Z,38.35
2023-03-08T22:21:47.339Z,37.20
2023-03-08T22:24:13.737Z,37.58
2023-03-08T22:26:40.108Z,38.88
2023-03-08T22:29:06.491Z,36.70
2023-03-08T22:31:33.003Z,38.33
2023-03-08T22:34:00.317Z,38.95
2023-03-08T22:36:26.685Z,35.90
2023-03-08T22:38:53.148Z,37.45
2023-03-08T22:41:22.019Z,37.47
2023-03-08T22:43:48.587Z,39.75
2023-03-08T22:46:21.415Z,38.72
2023-03-08T22:48:48.570Z,37.22
2023-03-08T22:51:16.714Z,37.50
2023-03-08T22:53:43.300Z,37.70
2023-03-08T22:56:31.471Z,35.20
2023-03-08T22:58:58.242Z,39.50
2023-03-08T23:01:25.150Z,37.80
2023-03-08T23:03:56.992Z,36.78
2023-03-08T23:06:24.745Z,37.83
2023-03-08T23:08:51.111Z,38.33
2023-03-08T23:11:17.581Z,36.13
2023-03-08T23:13:43.975Z,38.33
2023-03-08T23:16:14.670Z,39.35
2023-03-08T23:18:41.759Z,38.83
2023-03-08T23:21:11.348Z,38.13
2023-03-08T23:23:37.786Z,40.67
2023-03-08T23:26:05.782Z,40.15
2023-03-08T23:28:35.741Z,42.45
2023-03-08T23:31:13.938Z,41.60
2023-03-08T23:33:41.258Z,39.83
2023-03-08T23:36:09.353Z,44.38
2023-03-08T23:38:35.927Z,41.60
2023-03-08T23:41:06.834Z,43.63
2023-03-08T23:43:34.020Z,41.88
2023-03-08T23:46:05.107Z,41.58
2023-03-08T23:48:31.498Z,42.20
2023-03-08T23:50:57.942Z,42.08
2023-03-08T23:53:24.734Z,43.60
2023-03-08T23:55:51.112Z,43.38
2023-03-08T23:58:17.472Z,42.95
